sensor_id;sensor_type;location;lat;lon;timestamp;P1;durP1;ratioP1;P2;durP2;ratioP2
55212;SDS011;41083;52.932;6.674;2023-03-01T00:00:54;7.07;;;3.50;;
55212;SDS011;41083;52.932;6.674;2023-03-01T00:03:25;6.22;;;3.67;;
55212;SDS011;41083;52.932;6.674;2023-03-01T00:05:50;8.10;;;3.42;;
55212;SDS011;41083;52.932;6.674;2023-03-01T00:08:16;5.65;;;3.10;;
55212;SDS011;41083;52.932;6.674;2023-03-01T00:10:42;5.82;;;3.10;;
55212;SDS011;41083;52.932;6.674;2023-03-01T00:13:07;5.95;;;3.83;;
55212;SDS011;41083;52.932;6.674;2023-03-01T00:15:33;4.18;;;2.65;;
55212;SDS011;41083;52.932;6.674;2023-03-01T00:18:03;5.15;;;3.30;;
55212;SDS011;41083;52.932;6.674;2023-03-01T00:20:29;5.53;;;3.33;;
55212;SDS011;41083;52.932;6.674;2023-03-01T00:22:54;7.30;;;3.17;;
55212;SDS011;41083;52.932;6.674;2023-03-01T00:25:20;5.97;;;2.75;;
55212;SDS011;41083;52.932;6.674;2023-03-01T00:27:46;5.57;;;2.88;;
55212;SDS011;41083;52.932;6.674;2023-03-01T00:30:12;8.32;;;3.20;;
55212;SDS011;41083;52.932;6.674;2023-03-01T00:32:38;6.85;;;3.70;;
55212;SDS011;41083;52.932;6.674;2023-03-01T00:35:03;6.40;;;2.75;;
55212;SDS011;41083;52.932;6.674;2023-03-01T00:37:30;6.35;;;2.97;;
55212;SDS011;41083;52.932;6.674;2023-03-01T00:39:56;5.65;;;2.70;;
55212;SDS011;41083;52.932;6.674;2023-03-01T00:42:22;12.95;;;4.20;;
55212;SDS011;41083;52.932;6.674;2023-03-01T00:44:48;5.65;;;4.13;;
55212;SDS011;41083;52.932;6.674;2023-03-01T00:47:13;3.70;;;2.53;;
55212;SDS011;41083;52.932;6.674;2023-03-01T00:49:39;3.83;;;2.30;;
55212;SDS011;41083;52.932;6.674;2023-03-01T00:52:05;8.57;;;4.75;;
55212;SDS011;41083;52.932;6.674;2023-03-01T00:54:30;5.05;;;3.13;;
55212;SDS011;41083;52.932;6.674;2023-03-01T00:56:56;3.97;;;2.70;;
55212;SDS011;41083;52.932;6.674;2023-03-01T00:59:22;7.63;;;2.88;;
55212;SDS011;41083;52.932;6.674;2023-03-01T01:01:47;4.65;;;2.65;;
55212;SDS011;41083;52.932;6.674;2023-03-01T01:04:13;8.63;;;3.38;;
55212;SDS011;41083;52.932;6.674;2023-03-01T01:06:40;8.05;;;4.18;;
55212;SDS011;41083;52.932;6.674;2023-03-01T01:09:17;6.28;;;3.25;;
55212;SDS011;41083;52.932;6.674;2023-03-01T01:11:47;4.70;;;2.95;;
55212;SDS011;41083;52.932;6.674;2023-03-01T01:14:16;6.32;;;3.60;;
55212;SDS011;41083;52.932;6.674;2023-03-01T01:16:42;6.97;;;3.10;;
55212;SDS011;41083;52.932;6.674;2023-03-01T01:19:08;8.32;;;3.95;;
55212;SDS011;41083;52.932;6.674;2023-03-01T01:21:35;6.45;;;3.22;;
55212;SDS011;41083;52.932;6.674;2023-03-01T01:24:02;3.90;;;2.53;;
55212;SDS011;41083;52.932;6.674;2023-03-01T01:26:30;8.70;;;4.00;;
55212;SDS011;41083;52.932;6.674;2023-03-01T01:28:57;5.50;;;3.17;;
55212;SDS011;41083;52.932;6.674;2023-03-01T01:31:23;7.10;;;3.38;;
55212;SDS011;41083;52.932;6.674;2023-03-01T01:33:50;6.93;;;3.58;;
55212;SDS011;41083;52.932;6.674;2023-03-01T01:36:16;8.30;;;3.45;;
55212;SDS011;41083;52.932;6.674;2023-03-01T01:38:42;5.40;;;3.53;;
55212;SDS011;41083;52.932;6.674;2023-03-01T01:41:08;7.97;;;4.25;;
55212;SDS011;41083;52.932;6.674;2023-03-01T01:46:50;6.47;;;4.18;;
55212;SDS011;41083;52.932;6.674;2023-03-01T01:51:57;6.30;;;3.58;;
55212;SDS011;41083;52.932;6.674;2023-03-01T01:57:26;7.30;;;3.95;;
55212;SDS011;41083;52.932;6.674;2023-03-01T01:59:58;11.52;;;4.35;;
55212;SDS011;41083;52.932;6.674;2023-03-01T02:02:34;8.50;;;4.95;;
55212;SDS011;41083;52.932;6.674;2023-03-01T02:05:03;7.85;;;4.43;;
55212;SDS011;41083;52.932;6.674;2023-03-01T02:07:36;7.57;;;4.15;;
55212;SDS011;41083;52.932;6.674;2023-03-01T02:10:05;6.07;;;3.85;;
55212;SDS011;41083;52.932;6.674;2023-03-01T02:12:31;5.47;;;3.42;;
55212;SDS011;41083;52.932;6.674;2023-03-01T02:14:57;6.57;;;3.63;;
55212;SDS011;41083;52.932;6.674;2023-03-01T02:17:23;6.10;;;3.65;;
55212;SDS011;41083;52.932;6.674;2023-03-01T02:19:52;7.15;;;3.85;;
55212;SDS011;41083;52.932;6.674;2023-03-01T02:22:43;6.45;;;3.75;;
55212;SDS011;41083;52.932;6.674;2023-03-01T02:28:49;7.38;;;3.47;;
55212;SDS011;41083;52.932;6.674;2023-03-01T02:30:50;6.45;;;3.30;;
55212;SDS011;41083;52.932;6.674;2023-03-01T02:33:37;5.32;;;3.13;;
55212;SDS011;41083;52.932;6.674;2023-03-01T02:36:05;6.85;;;3.13;;
55212;SDS011;41083;52.932;6.674;2023-03-01T02:38:33;6.40;;;3.45;;
55212;SDS011;41083;52.932;6.674;2023-03-01T02:40:59;5.60;;;3.03;;
55212;SDS011;41083;52.932;6.674;2023-03-01T02:43:29;10.57;;;3.58;;
55212;SDS011;41083;52.932;6.674;2023-03-01T02:45:58;5.40;;;3.67;;
55212;SDS011;41083;52.932;6.674;2023-03-01T02:48:38;7.82;;;4.05;;
55212;SDS011;41083;52.932;6.674;2023-03-01T02:51:35;5.50;;;3.33;;
55212;SDS011;41083;52.932;6.674;2023-03-01T02:54:27;5.75;;;2.85;;
55212;SDS011;41083;52.932;6.674;2023-03-01T02:56:56;5.00;;;3.28;;
55212;SDS011;41083;52.932;6.674;2023-03-01T02:59:24;4.22;;;2.75;;
55212;SDS011;41083;52.932;6.674;2023-03-01T03:01:54;5.93;;;3.38;;
55212;SDS011;41083;52.932;6.674;2023-03-01T03:04:19;5.55;;;2.90;;
55212;SDS011;41083;52.932;6.674;2023-03-01T03:06:46;3.70;;;2.63;;
55212;SDS011;41083;52.932;6.674;2023-03-01T03:09:13;7.00;;;4.00;;
55212;SDS011;41083;52.932;6.674;2023-03-01T03:11:40;8.35;;;3.47;;
55212;SDS011;41083;52.932;6.674;2023-03-01T03:14:09;6.28;;;3.90;;
55212;SDS011;41083;52.932;6.674;2023-03-01T03:16:45;5.00;;;3.65;;
55212;SDS011;41083;52.932;6.674;2023-03-01T03:19:12;7.17;;;3.97;;
55212;SDS011;41083;52.932;6.674;2023-03-01T03:21:38;8.02;;;3.92;;
55212;SDS011;41083;52.932;6.674;2023-03-01T03:24:04;8.60;;;3.80;;
55212;SDS011;41083;52.932;6.674;2023-03-01T03:26:30;4.05;;;2.58;;
55212;SDS011;41083;52.932;6.674;2023-03-01T03:28:56;5.95;;;3.30;;
55212;SDS011;41083;52.932;6.674;2023-03-01T03:31:22;6.25;;;3.75;;
55212;SDS011;41083;52.932;6.674;2023-03-01T03:33:48;7.63;;;3.55;;
55212;SDS011;41083;52.932;6.674;2023-03-01T03:36:18;7.57;;;3.97;;
55212;SDS011;41083;52.932;6.674;2023-03-01T03:38:45;5.95;;;3.13;;
55212;SDS011;41083;52.932;6.674;2023-03-01T03:41:11;5.40;;;3.50;;
55212;SDS011;41083;52.932;6.674;2023-03-01T03:43:39;5.60;;;3.03;;
55212;SDS011;41083;52.932;6.674;2023-03-01T03:46:05;5.15;;;3.42;;
55212;SDS011;41083;52.932;6.674;2023-03-01T03:48:35;4.43;;;2.88;;
55212;SDS011;41083;52.932;6.674;2023-03-01T03:51:03;7.18;;;3.42;;
55212;SDS011;41083;52.932;6.674;2023-03-01T03:53:32;5.85;;;3.65;;
55212;SDS011;41083;52.932;6.674;2023-03-01T03:55:58;5.82;;;3.50;;
55212;SDS011;41083;52.932;6.674;2023-03-01T03:58:24;6.47;;;3.80;;
55212;SDS011;41083;52.932;6.674;2023-03-01T04:00:51;4.90;;;2.40;;
55212;SDS011;41083;52.932;6.674;2023-03-01T04:03:21;5.45;;;3.58;;
55212;SDS011;41083;52.932;6.674;2023-03-01T04:05:47;5.20;;;3.10;;
55212;SDS011;41083;52.932;6.674;2023-03-01T04:08:15;5.97;;;3.33;;
55212;SDS011;41083;52.932;6.674;2023-03-01T04:10:44;7.38;;;3.95;;
55212;SDS011;41083;52.932;6.674;2023-03-01T04:13:11;5.68;;;2.78;;
55212;SDS011;41083;52.932;6.674;2023-03-01T04:15:38;5.72;;;3.33;;
55212;SDS011;41083;52.932;6.674;2023-03-01T04:18:05;7.22;;;4.25;;
55212;SDS011;41083;52.932;6.674;2023-03-01T04:20:32;6.30;;;3.35;;
55212;SDS011;41083;52.932;6.674;2023-03-01T04:23:21;4.55;;;3.00;;
55212;SDS011;41083;52.932;6.674;2023-03-01T04:25:50;6.22;;;3.20;;
55212;SDS011;41083;52.932;6.674;2023-03-01T04:28:29;7.20;;;3.55;;
55212;SDS011;41083;52.932;6.674;2023-03-01T04:30:56;5.50;;;3.45;;
55212;SDS011;41083;52.932;6.674;2023-03-01T04:33:24;5.90;;;3.65;;
55212;SDS011;41083;52.932;6.674;2023-03-01T04:35:50;6.03;;;3.97;;
55212;SDS011;41083;52.932;6.674;2023-03-01T04:38:16;5.85;;;2.88;;
55212;SDS011;41083;52.932;6.674;2023-03-01T04:40:42;7.68;;;3.95;;
55212;SDS011;41083;52.932;6.674;2023-03-01T04:43:08;5.68;;;3.28;;
55212;SDS011;41083;52.932;6.674;2023-03-01T04:45:35;3.83;;;2.88;;
55212;SDS011;41083;52.932;6.674;2023-03-01T04:48:01;5.57;;;3.60;;
55212;SDS011;41083;52.932;6.674;2023-03-01T04:50:28;6.20;;;3.30;;
55212;SDS011;41083;52.932;6.674;2023-03-01T04:52:54;6.18;;;3.63;;
55212;SDS011;41083;52.932;6.674;2023-03-01T04:55:23;5.03;;;2.97;;
55212;SDS011;41083;52.932;6.674;2023-03-01T04:57:50;7.43;;;3.78;;
55212;SDS011;41083;52.932;6.674;2023-03-01T05:00:16;6.15;;;3.25;;
55212;SDS011;41083;52.932;6.674;2023-03-01T05:02:52;6.32;;;4.10;;
55212;SDS011;41083;52.932;6.674;2023-03-01T05:08:02;5.60;;;2.78;;
55212;SDS011;41083;52.932;6.674;2023-03-01T05:10:30;8.05;;;3.90;;
55212;SDS011;41083;52.932;6.674;2023-03-01T05:12:57;5.72;;;3.75;;
55212;SDS011;41083;52.932;6.674;2023-03-01T05:15:24;7.05;;;3.97;;
55212;SDS011;41083;52.932;6.674;2023-03-01T05:17:50;6.70;;;3.63;;
55212;SDS011;41083;52.932;6.674;2023-03-01T05:20:17;5.38;;;3.20;;
55212;SDS011;41083;52.932;6.674;2023-03-01T05:22:43;5.68;;;2.95;;
55212;SDS011;41083;52.932;6.674;2023-03-01T05:25:08;5.78;;;3.58;;
55212;SDS011;41083;52.932;6.674;2023-03-01T05:27:34;2.92;;;2.28;;
55212;SDS011;41083;52.932;6.674;2023-03-01T05:30:01;7.25;;;3.65;;
55212;SDS011;41083;52.932;6.674;2023-03-01T05:32:38;6.25;;;3.47;;
55212;SDS011;41083;52.932;6.674;2023-03-01T05:35:05;4.65;;;2.97;;
55212;SDS011;41083;52.932;6.674;2023-03-01T05:37:31;6.47;;;4.07;;
55212;SDS011;41083;52.932;6.674;2023-03-01T05:39:56;7.28;;;3.40;;
55212;SDS011;41083;52.932;6.674;2023-03-01T05:42:22;6.07;;;4.30;;
55212;SDS011;41083;52.932;6.674;2023-03-01T05:44:47;5.70;;;2.83;;
55212;SDS011;41083;52.932;6.674;2023-03-01T05:47:13;5.60;;;3.00;;
55212;SDS011;41083;52.932;6.674;2023-03-01T05:49:39;6.05;;;3.45;;
55212;SDS011;41083;52.932;6.674;2023-03-01T05:52:04;8.18;;;2.75;;
55212;SDS011;41083;52.932;6.674;2023-03-01T05:54:30;6.80;;;4.07;;
55212;SDS011;41083;52.932;6.674;2023-03-01T05:56:55;7.60;;;4.00;;
55212;SDS011;41083;52.932;6.674;2023-03-01T05:59:21;6.40;;;3.33;;
55212;SDS011;41083;52.932;6.674;2023-03-01T06:01:47;4.80;;;2.88;;
55212;SDS011;41083;52.932;6.674;2023-03-01T06:04:12;9.05;;;2.90;;
55212;SDS011;41083;52.932;6.674;2023-03-01T06:06:38;5.55;;;3.72;;
55212;SDS011;41083;52.932;6.674;2023-03-01T06:09:04;5.80;;;3.92;;
55212;SDS011;41083;52.932;6.674;2023-03-01T06:11:33;4.85;;;3.03;;
55212;SDS011;41083;52.932;6.674;2023-03-01T06:13:59;4.97;;;2.75;;
55212;SDS011;41083;52.932;6.674;2023-03-01T06:16:25;9.25;;;3.60;;
55212;SDS011;41083;52.932;6.674;2023-03-01T06:18:51;4.45;;;3.47;;
55212;SDS011;41083;52.932;6.674;2023-03-01T06:21:16;7.13;;;3.92;;
55212;SDS011;41083;52.932;6.674;2023-03-01T06:23:42;7.35;;;3.08;;
55212;SDS011;41083;52.932;6.674;2023-03-01T06:26:08;5.88;;;3.08;;
55212;SDS011;41083;52.932;6.674;2023-03-01T06:28:34;6.93;;;4.13;;
55212;SDS011;41083;52.932;6.674;2023-03-01T06:31:00;6.18;;;4.13;;
55212;SDS011;41083;52.932;6.674;2023-03-01T06:33:26;5.60;;;3.03;;
55212;SDS011;41083;52.932;6.674;2023-03-01T06:35:54;7.70;;;3.30;;
55212;SDS011;41083;52.932;6.674;2023-03-01T06:38:21;5.65;;;3.63;;
55212;SDS011;41083;52.932;6.674;2023-03-01T06:40:54;7.35;;;4.05;;
55212;SDS011;41083;52.932;6.674;2023-03-01T06:43:21;6.32;;;3.42;;
55212;SDS011;41083;52.932;6.674;2023-03-01T06:45:48;6.55;;;3.67;;
55212;SDS011;41083;52.932;6.674;2023-03-01T06:48:14;10.35;;;4.85;;
55212;SDS011;41083;52.932;6.674;2023-03-01T06:50:39;6.18;;;4.18;;
55212;SDS011;41083;52.932;6.674;2023-03-01T06:53:05;8.45;;;4.68;;
55212;SDS011;41083;52.932;6.674;2023-03-01T06:55:31;4.85;;;2.97;;
55212;SDS011;41083;52.932;6.674;2023-03-01T06:57:57;6.70;;;3.63;;
55212;SDS011;41083;52.932;6.674;2023-03-01T07:00:24;8.35;;;3.42;;
55212;SDS011;41083;52.932;6.674;2023-03-01T07:02:50;8.55;;;4.13;;
55212;SDS011;41083;52.932;6.674;2023-03-01T07:05:16;6.40;;;3.45;;
55212;SDS011;41083;52.932;6.674;2023-03-01T07:07:42;6.60;;;3.75;;
55212;SDS011;41083;52.932;6.674;2023-03-01T07:10:08;6.40;;;3.97;;
55212;SDS011;41083;52.932;6.674;2023-03-01T07:12:34;6.55;;;3.70;;
55212;SDS011;41083;52.932;6.674;2023-03-01T07:14:59;7.97;;;4.25;;
55212;SDS011;41083;52.932;6.674;2023-03-01T07:17:25;7.60;;;4.40;;
55212;SDS011;41083;52.932;6.674;2023-03-01T07:19:51;6.85;;;3.85;;
55212;SDS011;41083;52.932;6.674;2023-03-01T07:22:16;6.90;;;3.33;;
55212;SDS011;41083;52.932;6.674;2023-03-01T07:24:42;7.75;;;3.55;;
55212;SDS011;41083;52.932;6.674;2023-03-01T07:27:08;5.90;;;3.53;;
55212;SDS011;41083;52.932;6.674;2023-03-01T07:29:35;6.80;;;3.22;;
55212;SDS011;41083;52.932;6.674;2023-03-01T07:32:04;6.22;;;2.92;;
55212;SDS011;41083;52.932;6.674;2023-03-01T07:34:30;6.97;;;3.38;;
55212;SDS011;41083;52.932;6.674;2023-03-01T07:36:55;9.30;;;3.33;;
55212;SDS011;41083;52.932;6.674;2023-03-01T07:39:21;8.68;;;4.07;;
55212;SDS011;41083;52.932;6.674;2023-03-01T07:41:48;9.15;;;4.07;;
55212;SDS011;41083;52.932;6.674;2023-03-01T07:44:14;8.77;;;3.65;;
55212;SDS011;41083;52.932;6.674;2023-03-01T07:46:41;6.97;;;3.28;;
55212;SDS011;41083;52.932;6.674;2023-03-01T07:49:07;8.65;;;3.90;;
55212;SDS011;41083;52.932;6.674;2023-03-01T07:51:32;8.45;;;5.20;;
55212;SDS011;41083;52.932;6.674;2023-03-01T07:53:58;9.30;;;4.70;;
55212;SDS011;41083;52.932;6.674;2023-03-01T07:56:23;7.60;;;3.92;;
55212;SDS011;41083;52.932;6.674;2023-03-01T07:58:49;8.13;;;3.60;;
55212;SDS011;41083;52.932;6.674;2023-03-01T08:01:15;9.82;;;5.35;;
55212;SDS011;41083;52.932;6.674;2023-03-01T08:03:43;12.18;;;5.25;;
55212;SDS011;41083;52.932;6.674;2023-03-01T08:06:09;7.40;;;4.78;;
55212;SDS011;41083;52.932;6.674;2023-03-01T08:08:36;11.30;;;4.82;;
55212;SDS011;41083;52.932;6.674;2023-03-01T08:11:02;13.52;;;5.53;;
55212;SDS011;41083;52.932;6.674;2023-03-01T08:13:30;11.95;;;4.82;;
55212;SDS011;41083;52.932;6.674;2023-03-01T08:16:00;10.65;;;5.03;;
55212;SDS011;41083;52.932;6.674;2023-03-01T08:18:30;15.38;;;6.07;;
55212;SDS011;41083;52.932;6.674;2023-03-01T08:20:56;11.00;;;4.88;;
55212;SDS011;41083;52.932;6.674;2023-03-01T08:23:25;12.40;;;5.93;;
55212;SDS011;41083;52.932;6.674;2023-03-01T08:25:51;9.30;;;5.78;;
55212;SDS011;41083;52.932;6.674;2023-03-01T08:28:17;10.60;;;5.18;;
55212;SDS011;41083;52.932;6.674;2023-03-01T08:30:43;9.57;;;5.65;;
55212;SDS011;41083;52.932;6.674;2023-03-01T08:33:09;16.70;;;6.90;;
55212;SDS011;41083;52.932;6.674;2023-03-01T08:35:34;14.02;;;6.47;;
55212;SDS011;41083;52.932;6.674;2023-03-01T08:38:00;12.82;;;7.53;;
55212;SDS011;41083;52.932;6.674;2023-03-01T08:40:25;20.08;;;8.45;;
55212;SDS011;41083;52.932;6.674;2023-03-01T08:42:51;13.50;;;6.70;;
55212;SDS011;41083;52.932;6.674;2023-03-01T08:45:16;17.38;;;9.60;;
55212;SDS011;41083;52.932;6.674;2023-03-01T08:47:43;18.77;;;7.68;;
55212;SDS011;41083;52.932;6.674;2023-03-01T08:50:10;19.00;;;9.25;;
55212;SDS011;41083;52.932;6.674;2023-03-01T08:52:36;18.73;;;8.75;;
55212;SDS011;41083;52.932;6.674;2023-03-01T08:55:01;15.40;;;7.70;;
55212;SDS011;41083;52.932;6.674;2023-03-01T08:57:27;16.00;;;7.25;;
55212;SDS011;41083;52.932;6.674;2023-03-01T08:59:53;18.15;;;8.57;;
55212;SDS011;41083;52.932;6.674;2023-03-01T09:02:21;19.30;;;7.95;;
55212;SDS011;41083;52.932;6.674;2023-03-01T09:04:47;17.50;;;7.45;;
55212;SDS011;41083;52.932;6.674;2023-03-01T09:07:13;18.13;;;8.50;;
55212;SDS011;41083;52.932;6.674;2023-03-01T09:09:39;13.18;;;6.40;;
55212;SDS011;41083;52.932;6.674;2023-03-01T09:12:05;17.27;;;7.63;;
55212;SDS011;41083;52.932;6.674;2023-03-01T09:14:30;21.73;;;9.02;;
55212;SDS011;41083;52.932;6.674;2023-03-01T09:16:56;14.98;;;7.95;;
55212;SDS011;41083;52.932;6.674;2023-03-01T09:19:22;17.15;;;7.72;;
55212;SDS011;41083;52.932;6.674;2023-03-01T09:21:47;13.55;;;6.30;;
55212;SDS011;41083;52.932;6.674;2023-03-01T09:24:20;17.40;;;8.05;;
55212;SDS011;41083;52.932;6.674;2023-03-01T09:26:47;19.95;;;8.35;;
55212;SDS011;41083;52.932;6.674;2023-03-01T09:29:14;17.63;;;9.32;;
55212;SDS011;41083;52.932;6.674;2023-03-01T09:31:41;15.80;;;7.32;;
55212;SDS011;41083;52.932;6.674;2023-03-01T09:34:08;17.75;;;8.45;;
55212;SDS011;41083;52.932;6.674;2023-03-01T09:36:34;17.52;;;7.88;;
55212;SDS011;41083;52.932;6.674;2023-03-01T09:39:00;19.48;;;7.43;;
55212;SDS011;41083;52.932;6.674;2023-03-01T09:46:45;19.15;;;8.32;;
55212;SDS011;41083;52.932;6.674;2023-03-01T09:49:15;19.17;;;6.68;;
55212;SDS011;41083;52.932;6.674;2023-03-01T09:54:44;17.92;;;7.38;;
55212;SDS011;41083;52.932;6.674;2023-03-01T10:00:17;14.75;;;6.15;;
55212;SDS011;41083;52.932;6.674;2023-03-01T10:05:59;13.38;;;6.63;;
55212;SDS011;41083;52.932;6.674;2023-03-01T10:08:34;11.63;;;5.53;;
55212;SDS011;41083;52.932;6.674;2023-03-01T10:11:12;8.63;;;5.28;;
55212;SDS011;41083;52.932;6.674;2023-03-01T10:14:30;9.05;;;4.38;;
55212;SDS011;41083;52.932;6.674;2023-03-01T10:16:51;13.32;;;5.35;;
55212;SDS011;41083;52.932;6.674;2023-03-01T10:19:24;13.13;;;5.78;;
55212;SDS011;41083;52.932;6.674;2023-03-01T10:21:55;13.25;;;5.65;;
55212;SDS011;41083;52.932;6.674;2023-03-01T10:24:27;13.23;;;4.82;;
55212;SDS011;41083;52.932;6.674;2023-03-01T10:27:34;9.85;;;4.15;;
55212;SDS011;41083;52.932;6.674;2023-03-01T10:30:05;8.48;;;3.50;;
55212;SDS011;41083;52.932;6.674;2023-03-01T10:32:38;7.65;;;3.78;;
55212;SDS011;41083;52.932;6.674;2023-03-01T10:35:21;9.35;;;2.60;;
55212;SDS011;41083;52.932;6.674;2023-03-01T10:38:06;11.20;;;4.20;;
55212;SDS011;41083;52.932;6.674;2023-03-01T10:43:22;8.25;;;3.42;;
55212;SDS011;41083;52.932;6.674;2023-03-01T10:45:49;7.22;;;3.15;;
55212;SDS011;41083;52.932;6.674;2023-03-01T10:50:49;6.85;;;2.70;;
55212;SDS011;41083;52.932;6.674;2023-03-01T10:53:30;6.72;;;3.05;;
55212;SDS011;41083;52.932;6.674;2023-03-01T10:58:34;7.28;;;2.90;;
55212;SDS011;41083;52.932;6.674;2023-03-01T11:01:01;5.75;;;3.10;;
55212;SDS011;41083;52.932;6.674;2023-03-01T11:06:32;6.40;;;3.00;;
55212;SDS011;41083;52.932;6.674;2023-03-01T11:09:01;8.80;;;3.40;;
55212;SDS011;41083;52.932;6.674;2023-03-01T11:11:40;5.82;;;3.10;;
55212;SDS011;41083;52.932;6.674;2023-03-01T11:14:22;6.32;;;2.85;;
55212;SDS011;41083;52.932;6.674;2023-03-01T11:19:30;5.82;;;3.00;;
55212;SDS011;41083;52.932;6.674;2023-03-01T11:22:01;8.23;;;2.90;;
55212;SDS011;41083;52.932;6.674;2023-03-01T11:27:06;7.60;;;3.35;;
55212;SDS011;41083;52.932;6.674;2023-03-01T11:32:09;8.20;;;4.32;;
55212;SDS011;41083;52.932;6.674;2023-03-01T11:34:40;12.00;;;4.15;;
55212;SDS011;41083;52.932;6.674;2023-03-01T11:37:16;11.20;;;4.20;;
55212;SDS011;41083;52.932;6.674;2023-03-01T11:40:17;10.55;;;4.78;;
55212;SDS011;41083;52.932;6.674;2023-03-01T11:42:59;10.52;;;3.95;;
55212;SDS011;41083;52.932;6.674;2023-03-01T11:46:01;7.68;;;3.50;;
55212;SDS011;41083;52.932;6.674;2023-03-01T11:51:05;7.30;;;3.40;;
55212;SDS011;41083;52.932;6.674;2023-03-01T11:53:56;8.40;;;3.97;;
55212;SDS011;41083;52.932;6.674;2023-03-01T11:56:32;8.65;;;3.92;;
55212;SDS011;41083;52.932;6.674;2023-03-01T12:04:42;10.65;;;3.72;;
55212;SDS011;41083;52.932;6.674;2023-03-01T12:07:30;11.10;;;3.80;;
55212;SDS011;41083;52.932;6.674;2023-03-01T12:10:16;12.35;;;5.57;;
55212;SDS011;41083;52.932;6.674;2023-03-01T12:13:05;9.73;;;4.30;;
55212;SDS011;41083;52.932;6.674;2023-03-01T12:26:29;7.25;;;2.90;;
55212;SDS011;41083;52.932;6.674;2023-03-01T12:37:17;10.20;;;4.47;;
55212;SDS011;41083;52.932;6.674;2023-03-01T12:47:44;9.27;;;4.20;;
55212;SDS011;41083;52.932;6.674;2023-03-01T12:50:23;10.15;;;4.47;;
55212;SDS011;41083;52.932;6.674;2023-03-01T12:52:55;9.85;;;4.30;;
55212;SDS011;41083;52.932;6.674;2023-03-01T13:00:36;10.70;;;4.55;;
55212;SDS011;41083;52.932;6.674;2023-03-01T13:06:21;12.85;;;5.00;;
55212;SDS011;41083;52.932;6.674;2023-03-01T13:09:19;7.93;;;4.10;;
55212;SDS011;41083;52.932;6.674;2023-03-01T13:15:24;10.25;;;4.82;;
55212;SDS011;41083;52.932;6.674;2023-03-01T13:18:02;8.60;;;3.63;;
55212;SDS011;41083;52.932;6.674;2023-03-01T13:20:44;12.18;;;4.68;;
55212;SDS011;41083;52.932;6.674;2023-03-01T13:26:00;11.02;;;3.92;;
55212;SDS011;41083;52.932;6.674;2023-03-01T13:37:08;6.95;;;3.30;;
55212;SDS011;41083;52.932;6.674;2023-03-01T13:39:02;17.60;;;3.65;;
55212;SDS011;41083;52.932;6.674;2023-03-01T13:46:58;5.82;;;2.80;;
55212;SDS011;41083;52.932;6.674;2023-03-01T13:49:29;7.40;;;3.55;;
55212;SDS011;41083;52.932;6.674;2023-03-01T13:52:05;5.85;;;2.92;;
55212;SDS011;41083;52.932;6.674;2023-03-01T13:54:39;8.57;;;3.55;;
55212;SDS011;41083;52.932;6.674;2023-03-01T13:57:04;7.85;;;3.10;;
55212;SDS011;41083;52.932;6.674;2023-03-01T13:59:30;10.23;;;2.97;;
55212;SDS011;41083;52.932;6.674;2023-03-01T14:01:57;6.70;;;2.72;;
55212;SDS011;41083;52.932;6.674;2023-03-01T14:04:26;8.48;;;3.45;;
55212;SDS011;41083;52.932;6.674;2023-03-01T14:09:50;9.52;;;3.45;;
55212;SDS011;41083;52.932;6.674;2023-03-01T14:20:59;10.10;;;3.95;;
55212;SDS011;41083;52.932;6.674;2023-03-01T14:23:31;7.88;;;3.25;;
55212;SDS011;41083;52.932;6.674;2023-03-01T14:25:59;6.70;;;2.85;;
55212;SDS011;41083;52.932;6.674;2023-03-01T14:28:27;7.45;;;2.83;;
55212;SDS011;41083;52.932;6.674;2023-03-01T14:30:55;8.00;;;3.15;;
55212;SDS011;41083;52.932;6.674;2023-03-01T14:33:28;9.57;;;3.40;;
55212;SDS011;41083;52.932;6.674;2023-03-01T14:36:10;5.93;;;2.65;;
55212;SDS011;41083;52.932;6.674;2023-03-01T14:38:43;5.88;;;2.78;;
55212;SDS011;41083;52.932;6.674;2023-03-01T14:41:11;7.25;;;2.58;;
55212;SDS011;41083;52.932;6.674;2023-03-01T14:43:41;9.27;;;2.75;;
55212;SDS011;41083;52.932;6.674;2023-03-01T14:49:22;6.88;;;2.80;;
55212;SDS011;41083;52.932;6.674;2023-03-01T14:52:07;4.80;;;2.20;;
55212;SDS011;41083;52.932;6.674;2023-03-01T14:54:47;5.82;;;2.50;;
55212;SDS011;41083;52.932;6.674;2023-03-01T14:57:16;5.03;;;2.75;;
55212;SDS011;41083;52.932;6.674;2023-03-01T14:59:47;5.05;;;2.42;;
55212;SDS011;41083;52.932;6.674;2023-03-01T15:02:17;8.48;;;3.67;;
55212;SDS011;41083;52.932;6.674;2023-03-01T15:04:48;6.45;;;3.17;;
55212;SDS011;41083;52.932;6.674;2023-03-01T15:07:16;9.65;;;3.17;;
55212;SDS011;41083;52.932;6.674;2023-03-01T15:09:43;8.13;;;2.67;;
55212;SDS011;41083;52.932;6.674;2023-03-01T15:14:56;8.00;;;3.25;;
55212;SDS011;41083;52.932;6.674;2023-03-01T15:17:30;6.57;;;3.00;;
55212;SDS011;41083;52.932;6.674;2023-03-01T15:20:01;7.75;;;3.30;;
55212;SDS011;41083;52.932;6.674;2023-03-01T15:22:29;8.55;;;3.40;;
55212;SDS011;41083;52.932;6.674;2023-03-01T15:24:55;9.05;;;3.53;;
55212;SDS011;41083;52.932;6.674;2023-03-01T15:27:23;7.20;;;3.25;;
55212;SDS011;41083;52.932;6.674;2023-03-01T15:29:53;9.20;;;3.92;;
55212;SDS011;41083;52.932;6.674;2023-03-01T15:34:58;7.60;;;2.85;;
55212;SDS011;41083;52.932;6.674;2023-03-01T15:37:39;8.50;;;3.47;;
55212;SDS011;41083;52.932;6.674;2023-03-01T15:40:19;8.82;;;4.28;;
55212;SDS011;41083;52.932;6.674;2023-03-01T15:42:56;4.68;;;2.17;;
55212;SDS011;41083;52.932;6.674;2023-03-01T15:45:23;8.05;;;3.80;;
55212;SDS011;41083;52.932;6.674;2023-03-01T15:48:02;7.60;;;3.35;;
55212;SDS011;41083;52.932;6.674;2023-03-01T15:52:55;8.18;;;3.40;;
55212;SDS011;41083;52.932;6.674;2023-03-01T15:55:25;8.52;;;3.88;;
55212;SDS011;41083;52.932;6.674;2023-03-01T15:57:58;8.23;;;3.75;;
55212;SDS011;41083;52.932;6.674;2023-03-01T16:00:26;11.20;;;4.82;;
55212;SDS011;41083;52.932;6.674;2023-03-01T16:02:52;12.25;;;5.50;;
55212;SDS011;41083;52.932;6.674;2023-03-01T16:05:22;7.85;;;3.25;;
55212;SDS011;41083;52.932;6.674;2023-03-01T16:07:59;9.60;;;3.80;;
55212;SDS011;41083;52.932;6.674;2023-03-01T16:10:25;9.07;;;3.92;;
55212;SDS011;41083;52.932;6.674;2023-03-01T16:12:52;8.80;;;3.80;;
55212;SDS011;41083;52.932;6.674;2023-03-01T16:15:22;10.82;;;4.15;;
55212;SDS011;41083;52.932;6.674;2023-03-01T16:17:48;14.93;;;4.32;;
55212;SDS011;41083;52.932;6.674;2023-03-01T16:20:14;8.02;;;3.40;;
55212;SDS011;41083;52.932;6.674;2023-03-01T16:22:43;8.32;;;4.05;;
55212;SDS011;41083;52.932;6.674;2023-03-01T16:25:14;11.98;;;4.25;;
55212;SDS011;41083;52.932;6.674;2023-03-01T16:27:45;9.98;;;4.18;;
55212;SDS011;41083;52.932;6.674;2023-03-01T16:30:13;12.55;;;4.65;;
55212;SDS011;41083;52.932;6.674;2023-03-01T16:32:41;8.70;;;3.47;;
55212;SDS011;41083;52.932;6.674;2023-03-01T16:35:09;9.85;;;3.67;;
55212;SDS011;41083;52.932;6.674;2023-03-01T16:37:36;10.02;;;3.80;;
55212;SDS011;41083;52.932;6.674;2023-03-01T16:40:02;8.32;;;3.55;;
55212;SDS011;41083;52.932;6.674;2023-03-01T16:42:34;9.75;;;4.00;;
55212;SDS011;41083;52.932;6.674;2023-03-01T16:45:01;11.25;;;4.15;;
55212;SDS011;41083;52.932;6.674;2023-03-01T16:47:28;7.93;;;4.30;;
55212;SDS011;41083;52.932;6.674;2023-03-01T16:49:53;9.95;;;4.25;;
55212;SDS011;41083;52.932;6.674;2023-03-01T16:52:20;9.48;;;4.45;;
55212;SDS011;41083;52.932;6.674;2023-03-01T16:54:46;8.07;;;3.10;;
55212;SDS011;41083;52.932;6.674;2023-03-01T16:57:12;9.38;;;4.20;;
55212;SDS011;41083;52.932;6.674;2023-03-01T16:59:37;15.07;;;4.25;;
55212;SDS011;41083;52.932;6.674;2023-03-01T17:02:04;8.77;;;3.50;;
55212;SDS011;41083;52.932;6.674;2023-03-01T17:04:31;8.15;;;3.45;;
55212;SDS011;41083;52.932;6.674;2023-03-01T17:06:57;12.02;;;4.38;;
55212;SDS011;41083;52.932;6.674;2023-03-01T17:09:22;8.25;;;3.78;;
55212;SDS011;41083;52.932;6.674;2023-03-01T17:11:48;10.20;;;5.47;;